Time;durP1;ratioP1;P1;durP2;ratioP2;P2;SDS_P1;SDS_P2;PMS_P1;PMS_P2;Temp;Humidity;BMP_temperature;BMP_pressure;BME280_temperature;BME280_humidity;BME280_pressure;Samples;Min_cycle;Max_cycle;Signal;HPM_P1;HPM_P2
2023/12/05 05:59:52;;;;;;;85.00;32.90;;;;;;;-5.40;100.00;101235.77;108511;1273;22784;-43
2023/12/05 06:02:19;;;;;;;74.40;35.00;;;;;;;-5.41;100.00;101232.06;107802;1279;22586;-43
2023/12/05 06:04:46;;;;;;;68.50;33.30;;;;;;;-5.40;100.00;101227.05;109259;1279;22234;-44
2023/12/05 06:07:14;;;;;;;75.80;35.20;;;;;;;-5.38;100.00;101224.36;109372;1278;22492;-44
2023/12/05 06:09:46;;;;;;;82.50;37.00;;;;;;;-5.33;100.00;101229.14;108284;1280;22563;-51
2023/12/05 06:12:14;;;;;;;73.20;36.70;;;;;;;-5.26;100.00;101231.86;108692;1276;22542;-49
2023/12/05 06:14:41;;;;;;;79.50;36.10;;;;;;;-5.18;100.00;101238.96;109835;1272;22481;-43
2023/12/05 06:17:08;;;;;;;77.10;37.30;;;;;;;-5.09;100.00;101241.91;109820;1272;22486;-50
2023/12/05 06:19:35;;;;;;;84.20;38.80;;;;;;;-4.98;100.00;101243.61;109861;1272;22872;-50
2023/12/05 06:22:01;;;;;;;84.30;37.60;;;;;;;-4.92;100.00;101239.97;109820;1268;22425;-44
2023/12/05 06:24:28;;;;;;;83.60;40.20;;;;;;;-4.83;100.00;101251.02;109693;1270;22430;-44
2023/12/05 06:27:08;;;;;;;83.80;39.20;;;;;;;-4.70;100.00;101251.48;109389;1273;22672;-44
2023/12/05 06:30:11;;;;;;;85.60;38.60;;;;;;;-4.57;100.00;101247.23;109733;1277;23812;-43
2023/12/05 06:33:18;;;;;;;82.60;37.90;;;;;;;-4.42;100.00;101251.23;109379;1274;22279;-51
2023/12/05 06:36:44;;;;;;;80.60;37.00;;;;;;;-4.30;100.00;101250.96;109437;1274;22340;-44
2023/12/05 06:40:50;;;;;;;75.10;36.50;;;;;;;-4.21;100.00;101240.91;109628;1270;22195;-50
2023/12/05 06:43:38;;;;;;;82.20;39.80;;;;;;;-4.11;100.00;101236.49;109680;1273;22542;-44
2023/12/05 06:46:11;;;;;;;72.40;36.00;;;;;;;-4.03;100.00;101230.83;108637;1262;23229;-44
2023/12/05 06:48:42;;;;;;;73.10;36.00;;;;;;;-3.92;100.00;101230.21;109435;1272;22517;-43
2023/12/05 06:51:22;;;;;;;67.60;36.30;;;;;;;-3.81;100.00;101228.16;109389;1279;23032;-44
2023/12/05 06:53:49;;;;;;;72.40;35.70;;;;;;;-3.65;100.00;101224.30;109457;1274;23326;-47
2023/12/05 06:56:23;;;;;;;70.00;35.00;;;;;;;-3.53;100.00;101220.89;109050;1278;24692;-49
2023/12/05 06:58:52;;;;;;;65.70;35.70;;;;;;;-3.40;100.00;101217.59;108325;1277;22175;-49
2023/12/05 07:01:23;;;;;;;73.00;35.30;;;;;;;-3.25;100.00;101219.45;109023;1275;22338;-50
2023/12/05 07:03:55;;;;;;;64.30;32.30;;;;;;;-3.16;100.00;101221.63;109496;1273;23001;-49
2023/12/05 07:06:24;;;;;;;73.30;35.00;;;;;;;-3.09;100.00;101216.27;108529;1270;22522;-49
2023/12/05 07:08:52;;;;;;;58.60;31.50;;;;;;;-3.06;100.00;101211.93;109756;1273;23521;-44
2023/12/05 07:11:26;;;;;;;56.10;31.20;;;;;;;-3.03;100.00;101209.93;109559;1277;22407;-50
2023/12/05 07:13:58;;;;;;;55.30;30.10;;;;;;;-2.98;100.00;101209.73;109030;1273;22465;-43
2023/12/05 07:16:25;;;;;;;56.00;28.60;;;;;;;-2.92;100.00;101211.02;109302;1270;22412;-50
2023/12/05 07:18:52;;;;;;;56.30;29.10;;;;;;;-2.85;100.00;101212.15;108914;1272;22994;-43
2023/12/05 07:21:19;;;;;;;58.30;28.60;;;;;;;-2.78;100.00;101214.83;108952;1270;23289;-47
2023/12/05 07:23:46;;;;;;;60.90;29.40;;;;;;;-2.71;100.00;101216.86;109365;1270;22357;-43
2023/12/05 07:26:26;;;;;;;62.60;29.10;;;;;;;-2.61;100.00;101218.52;108906;1274;25039;-49
2023/12/05 07:28:53;;;;;;;53.40;28.70;;;;;;;-2.53;100.00;101221.31;109573;1276;22256;-44
2023/12/05 07:31:20;;;;;;;53.30;27.90;;;;;;;-2.47;100.00;101221.23;108985;1270;23523;-49
2023/12/05 07:33:48;;;;;;;48.80;25.90;;;;;;;-2.39;100.00;101230.27;109443;1269;22607;-44
2023/12/05 07:36:24;;;;;;;48.90;26.20;;;;;;;-2.31;100.00;101233.08;108669;1269;22629;-44
2023/12/05 07:39:02;;;;;;;52.40;26.90;;;;;;;-2.24;100.00;101234.21;108669;1272;22948;-50
2023/12/05 07:41:36;;;;;;;50.90;27.80;;;;;;;-2.18;100.00;101223.50;108610;1275;22556;-49
2023/12/05 07:44:10;;;;;;;54.20;27.40;;;;;;;-2.11;100.00;101220.14;108629;1273;23158;-49
2023/12/05 07:46:48;;;;;;;55.10;28.60;;;;;;;-2.05;100.00;101218.55;109391;1272;22376;-49
2023/12/05 07:49:25;;;;;;;58.90;28.10;;;;;;;-1.97;100.00;101217.52;108347;1273;22420;-50
2023/12/05 07:51:58;;;;;;;54.60;27.40;;;;;;;-1.84;100.00;101206.84;108746;1273;22537;-45
2023/12/05 07:54:26;;;;;;;51.00;27.90;;;;;;;-1.73;100.00;101197.48;108804;1273;24276;-44
2023/12/05 07:56:53;;;;;;;48.80;26.70;;;;;;;-1.64;100.00;101196.74;108428;1272;22552;-42
2023/12/05 07:59:20;;;;;;;56.10;28.20;;;;;;;-1.54;100.00;101196.45;109690;1272;24796;-49
2023/12/05 08:01:54;;;;;;;48.20;27.70;;;;;;;-1.45;100.00;101191.89;108815;1275;22577;-44
2023/12/05 08:04:37;;;;;;;47.70;26.10;;;;;;;-1.38;100.00;101188.55;109041;1266;22526;-47
2023/12/05 08:11:30;;;;;;;43.90;23.70;;;;;;;-1.20;100.00;101195.66;108625;1273;25062;-50
2023/12/05 08:14:19;;;;;;;44.60;25.40;;;;;;;-1.19;100.00;101202.42;107935;1274;23109;-44
2023/12/05 08:17:21;;;;;;;42.60;24.60;;;;;;;-1.10;100.00;101208.42;109083;1277;22764;-49
2023/12/05 08:21:05;;;;;;;42.40;22.60;;;;;;;-0.95;100.00;101211.41;108153;1275;24328;-44
2023/12/05 08:24:47;;;;;;;45.30;24.70;;;;;;;-0.85;99.78;101213.39;108750;1278;22994;-45
2023/12/05 08:27:50;;;;;;;43.00;26.00;;;;;;;-0.78;99.78;101207.42;108994;1275;22544;-49
2023/12/05 08:30:54;;;;;;;51.70;25.80;;;;;;;-0.74;99.36;101205.41;108760;1276;22590;-50
2023/12/05 08:33:43;;;;;;;50.20;25.80;;;;;;;-0.64;99.25;101204.70;107885;1281;23702;-42
2023/12/05 08:36:12;;;;;;;46.10;27.50;;;;;;;-0.59;98.50;101203.48;108342;1267;22869;-43
2023/12/05 08:38:39;;;;;;;56.10;29.30;;;;;;;-0.60;97.78;101205.78;108857;1281;22392;-45
2023/12/05 08:41:08;;;;;;;48.00;28.10;;;;;;;-0.63;97.47;101208.16;108166;1273;22212;-44
2023/12/05 08:43:36;;;;;;;54.20;28.30;;;;;;;-0.67;97.29;101202.48;109502;1268;23792;-48
2023/12/05 08:46:10;;;;;;;52.00;27.40;;;;;;;-0.67;97.19;101204.88;109059;1274;22413;-48
2023/12/05 08:48:40;;;;;;;49.50;27.30;;;;;;;-0.67;97.26;101212.27;108285;1277;22536;-48
2023/12/05 08:51:08;;;;;;;54.30;30.50;;;;;;;-0.68;96.73;101216.78;108887;1276;23230;-49
2023/12/05 08:53:45;;;;;;;51.20;28.10;;;;;;;-0.73;96.06;101218.17;108687;1264;22679;-51
2023/12/05 08:56:21;;;;;;;60.00;29.80;;;;;;;-0.81;95.92;101213.09;108604;1273;22701;-45
2023/12/05 08:59:05;;;;;;;63.40;30.70;;;;;;;-0.87;96.08;101210.02;108249;1281;22870;-43
2023/12/05 09:01:35;;;;;;;66.30;34.40;;;;;;;-0.90;96.58;101208.43;109242;1276;22580;-44
2023/12/05 09:04:05;;;;;;;70.40;35.10;;;;;;;-0.91;96.60;101206.16;109131;1271;23066;-49
2023/12/05 09:06:32;;;;;;;77.40;39.00;;;;;;;-0.86;97.25;101203.08;109120;1268;22809;-49
2023/12/05 09:09:04;;;;;;;67.50;35.50;;;;;;;-0.76;97.62;101193.87;109452;1274;22061;-43
2023/12/05 09:11:33;;;;;;;;;;;;;;;-0.65;97.55;101182.72;109136;1273;22530;-49
2023/12/05 09:14:01;;;;;;;61.90;33.50;;;;;;;-0.54;97.80;101184.38;109453;1275;22496;-49
2023/12/05 09:16:28;;;;;;;61.30;33.90;;;;;;;-0.45;97.62;101184.20;108974;1278;23124;-48
2023/12/05 09:18:55;;;;;;;68.90;38.50;;;;;;;-0.43;96.88;101181.93;109174;1274;23069;-44
2023/12/05 09:21:46;;;;;;;68.00;36.90;;;;;;;-0.38;97.30;101167.98;108760;1271;23394;-49
2023/12/05 09:24:18;;;;;;;70.90;37.90;;;;;;;-0.30;97.21;101158.52;107143;1280;22548;-49
2023/12/05 09:26:46;;;;;;;67.00;38.60;;;;;;;-0.25;97.08;101161.36;108286;1270;22680;-43
2023/12/05 09:29:15;;;;;;;71.30;38.80;;;;;;;-0.19;96.63;101168.59;108572;1277;22724;-48
2023/12/05 09:31:42;;;;;;;66.60;34.60;;;;;;;-0.16;96.38;101166.84;108720;1275;22451;-43
2023/12/05 09:34:09;;;;;;;78.10;38.40;;;;;;;-0.19;95.90;101169.39;109186;1271;22262;-45
2023/12/05 09:36:40;;;;;;;56.80;34.60;;;;;;;-0.27;95.45;101166.73;108638;1276;23069;-52
2023/12/05 09:39:10;;;;;;;71.90;36.80;;;;;;;-0.31;95.68;101162.59;108699;1264;23188;-49
2023/12/05 09:42:06;;;;;;;76.50;38.30;;;;;;;-0.33;95.51;101158.85;109037;1280;23111;-44
2023/12/05 09:44:34;;;;;;;49.60;27.30;;;;;;;-0.35;95.75;101161.48;109212;1282;22413;-43
2023/12/05 09:47:04;;;;;;;47.50;23.80;;;;;;;-0.37;94.45;101167.88;109499;1271;22406;-46
2023/12/05 09:49:31;;;;;;;45.60;23.90;;;;;;;-0.44;93.47;101173.32;109526;1276;23206;-49
2023/12/05 09:52:00;;;;;;;42.00;23.60;;;;;;;-0.52;93.97;101176.59;109377;1268;22473;-49
2023/12/05 09:54:27;;;;;;;43.00;23.40;;;;;;;-0.57;94.05;101172.71;108939;1274;23103;-49
2023/12/05 09:56:58;;;;;;;39.20;22.30;;;;;;;-0.63;93.93;101168.26;109534;1273;22383;-50
2023/12/05 09:59:31;;;;;;;39.20;22.80;;;;;;;-0.67;94.28;101160.80;108656;1277;22594;-45
2023/12/05 10:02:26;;;;;;;43.70;22.10;;;;;;;-0.67;94.40;101162.17;108999;1281;22494;-43
2023/12/05 10:05:08;;;;;;;35.70;21.40;;;;;;;-0.65;94.19;101157.50;108741;1273;24447;-48
2023/12/05 10:07:44;;;;;;;42.80;21.90;;;;;;;-0.63;94.32;101158.15;108526;1274;22936;-43
2023/12/05 10:10:19;;;;;;;39.60;21.50;;;;;;;-0.59;94.07;101167.80;108685;1276;22215;-42
2023/12/05 10:12:48;;;;;;;47.30;21.50;;;;;;;-0.60;93.99;101168.09;109231;1275;22727;-49
2023/12/05 10:15:18;;;;;;;51.10;23.70;;;;;;;-0.57;94.40;101168.46;107672;1280;1652586;-49
2023/12/05 10:17:49;;;;;;;26.50;15.60;;;;;;;-0.49;94.40;101171.98;108081;1275;22885;-45
2023/12/05 10:20:17;;;;;;;43.70;22.00;;;;;;;-0.43;94.27;101169.22;108570;1278;22582;-49
2023/12/05 10:22:47;;;;;;;34.50;19.60;;;;;;;-0.38;94.13;101163.38;108790;1275;22350;-48
2023/12/05 10:25:15;;;;;;;39.50;19.40;;;;;;;-0.37;93.69;101164.46;109622;1281;23180;-43
2023/12/05 10:27:42;;;;;;;29.20;15.80;;;;;;;-0.41;93.47;101165.58;109351;1271;22616;-44
2023/12/05 10:30:19;;;;;;;31.70;18.60;;;;;;;-0.45;93.27;101165.34;109425;1271;22358;-50
2023/12/05 10:33:13;;;;;;;32.90;16.90;;;;;;;-0.53;93.03;101166.27;108812;1273;22254;-49
2023/12/05 10:35:45;;;;;;;41.40;19.90;;;;;;;-0.59;93.63;101162.66;109277;1275;22333;-44
2023/12/05 10:38:18;;;;;;;28.00;18.00;;;;;;;-0.59;94.53;101161.98;109028;1271;22548;-49
2023/12/05 10:40:59;;;;;;;33.00;18.50;;;;;;;-0.57;94.57;101153.35;109593;1276;22200;-50
2023/12/05 10:43:27;;;;;;;28.90;18.10;;;;;;;-0.58;95.22;101140.80;109139;1275;22363;-50
2023/12/05 10:45:55;;;;;;;33.10;19.70;;;;;;;-0.57;95.22;101138.84;109012;1274;22668;-44
2023/12/05 10:48:25;;;;;;;33.20;18.90;;;;;;;-0.52;95.55;101138.36;108997;1275;22377;-49
2023/12/05 10:50:56;;;;;;;34.30;19.50;;;;;;;-0.45;95.64;101129.70;108941;1273;23436;-49
2023/12/05 10:54:00;;;;;;;32.20;19.90;;;;;;;-0.39;95.77;101132.61;108946;1273;23361;-50
2023/12/05 10:56:28;;;;;;;34.10;19.70;;;;;;;-0.34;95.60;101136.00;109359;1279;22305;-43
2023/12/05 10:58:58;;;;;;;30.60;19.00;;;;;;;-0.31;95.48;101141.30;109319;1271;23495;-44
2023/12/05 11:01:28;;;;;;;29.30;17.70;;;;;;;-0.30;94.90;101142.40;109016;1275;22366;-52
2023/12/05 11:04:02;;;;;;;32.20;19.50;;;;;;;-0.28;94.92;101147.83;108028;1280;23034;-43
2023/12/05 11:07:14;;;;;;;33.40;18.30;;;;;;;-0.24;95.08;101145.13;109151;1277;22386;-43
2023/12/05 11:09:47;;;;;;;30.20;18.50;;;;;;;-0.17;95.05;101145.19;108981;1267;22398;-43
2023/12/05 11:12:52;;;;;;;34.90;20.10;;;;;;;-0.10;95.18;101138.02;108786;1276;22887;-42
2023/12/05 11:15:52;;;;;;;29.80;13.40;;;;;;;-0.02;94.79;101137.65;108757;1275;23322;-43
2023/12/05 11:19:05;;;;;;;31.10;16.20;;;;;;;0.05;93.06;101134.23;108716;1275;22994;-43
2023/12/05 11:22:58;;;;;;;27.40;16.20;;;;;;;0.05;92.54;101124.94;108402;1268;22852;-44
2023/12/05 11:25:27;;;;;;;27.50;15.10;;;;;;;-0.01;91.75;101125.48;109036;1276;22851;-47
2023/12/05 11:28:31;;;;;;;28.80;16.80;;;;;;;-0.08;91.71;101128.02;108297;1275;22560;-44
2023/12/05 11:31:23;;;;;;;31.10;16.90;;;;;;;-0.13;91.86;101126.02;109572;1274;22560;-48
2023/12/05 11:34:17;;;;;;;35.20;16.70;;;;;;;-0.14;91.55;101124.09;109231;1275;22941;-41
2023/12/05 11:36:55;;;;;;;28.30;16.80;;;;;;;-0.17;91.67;101114.52;108626;1275;22716;-44
2023/12/05 11:39:32;;;;;;;31.40;16.60;;;;;;;-0.17;91.59;101106.28;109082;1281;22323;-43
2023/12/05 11:42:10;;;;;;;35.20;15.60;;;;;;;-0.17;91.13;101103.89;109265;1275;22397;-44
2023/12/05 11:44:42;;;;;;;38.20;16.90;;;;;;;-0.19;90.92;101105.95;108794;1272;23723;-45
2023/12/05 11:47:31;;;;;;;27.30;15.50;;;;;;;-0.20;90.95;101110.21;108924;1278;22774;-49
2023/12/05 11:50:02;;;;;;;28.90;16.40;;;;;;;-0.18;90.39;101111.65;108868;1281;22976;-52
2023/12/05 11:52:39;;;;;;;25.80;15.60;;;;;;;-0.21;90.10;101115.45;108904;1280;22563;-50
2023/12/05 11:55:12;;;;;;;21.90;13.70;;;;;;;-0.23;90.16;101116.91;108837;1275;22897;-50
2023/12/05 11:57:43;;;;;;;25.20;14.90;;;;;;;-0.26;90.37;101109.69;109060;1275;22501;-49
2023/12/05 12:00:12;;;;;;;23.00;13.60;;;;;;;-0.28;90.89;101109.63;109376;1275;22393;-48
2023/12/05 12:02:48;;;;;;;33.70;17.30;;;;;;;-0.28;91.35;101109.26;108588;1275;22639;-48
2023/12/05 12:05:16;;;;;;;27.90;15.80;;;;;;;-0.26;91.71;101111.58;109219;1282;23102;-42
2023/12/05 12:07:50;;;;;;;30.60;16.90;;;;;;;-0.24;91.25;101110.52;109340;1275;23875;-42
2023/12/05 12:10:32;;;;;;;32.30;16.80;;;;;;;-0.21;92.00;101108.98;108465;1268;22260;-43
2023/12/05 12:13:03;;;;;;;29.40;16.50;;;;;;;-0.16;91.31;101106.85;108421;1277;22496;-49
2023/12/05 12:15:37;;;;;;;33.70;16.90;;;;;;;-0.15;90.90;101105.86;109194;1275;22326;-49
2023/12/05 12:18:07;;;;;;;26.50;15.90;;;;;;;-0.14;90.88;101104.70;108884;1278;22592;-43
2023/12/05 12:20:53;;;;;;;28.50;15.70;;;;;;;-0.14;90.92;101104.20;108703;1275;24210;-49
2023/12/05 12:23:22;;;;;;;29.20;15.00;;;;;;;-0.10;91.76;101108.70;108552;1280;24215;-50
2023/12/05 12:25:57;;;;;;;;;;;;;;;-0.05;92.13;101101.96;108807;1280;23146;-48
2023/12/05 12:28:28;;;;;;;25.70;13.80;;;;;;;-0.01;91.92;101095.51;108644;1277;22281;-42
2023/12/05 12:30:59;;;;;;;23.80;13.60;;;;;;;0.03;91.75;101090.21;108841;1275;22555;-42
2023/12/05 12:33:40;;;;;;;21.30;13.10;;;;;;;0.05;91.87;101084.66;109528;1274;23067;-44
2023/12/05 12:36:18;;;;;;;24.80;14.20;;;;;;;0.06;91.66;101088.30;108924;1276;23186;-49
2023/12/05 12:39:01;;;;;;;28.10;14.60;;;;;;;0.04;91.80;101090.63;109238;1275;22556;-44
2023/12/05 12:41:31;;;;;;;22.70;14.00;;;;;;;0.06;91.82;101093.45;108581;1277;23045;-43
2023/12/05 12:44:05;;;;;;;24.60;13.40;;;;;;;0.06;91.15;101093.96;108727;1265;22480;-44
2023/12/05 12:46:35;;;;;;;22.10;13.30;;;;;;;0.03;90.80;101088.50;108826;1265;22666;-49
2023/12/05 12:49:11;;;;;;;27.80;15.50;;;;;;;-0.01;91.27;101085.36;108510;1276;22569;-49
2023/12/05 12:52:02;;;;;;;23.50;12.70;;;;;;;-0.04;91.87;101090.38;108283;1280;22681;-44
2023/12/05 12:54:43;;;;;;;25.10;14.60;;;;;;;-0.06;91.58;101084.06;108605;1283;23357;-50
2023/12/05 12:57:10;;;;;;;23.20;14.60;;;;;;;-0.05;92.48;101079.86;109401;1276;22696;-44
2023/12/05 12:59:40;;;;;;;24.30;16.00;;;;;;;-0.01;93.07;101078.49;109403;1277;23105;-43
2023/12/05 13:02:09;;;;;;;26.90;14.90;;;;;;;0.05;93.01;101081.73;108994;1276;23118;-43
2023/12/05 13:04:41;;;;;;;25.20;15.30;;;;;;;0.05;92.54;101087.58;109391;1281;22307;-43
2023/12/05 13:07:08;;;;;;;29.30;16.70;;;;;;;0.00;92.14;101088.35;109545;1274;22312;-49
2023/12/05 13:09:35;;;;;;;30.60;16.80;;;;;;;-0.04;92.15;101086.73;109272;1283;23094;-50
2023/12/05 13:12:02;;;;;;;27.70;15.30;;;;;;;-0.04;92.92;101086.45;109252;1274;22598;-43
2023/12/05 13:14:30;;;;;;;29.40;17.20;;;;;;;-0.03;92.69;101078.94;109542;1281;23282;-50
2023/12/05 13:16:57;;;;;;;28.80;18.10;;;;;;;-0.04;92.41;101081.95;109604;1281;22381;-43
2023/12/05 13:19:29;;;;;;;26.30;16.20;;;;;;;-0.07;91.87;101086.41;109642;1281;22208;-49
2023/12/05 13:21:56;;;;;;;24.70;15.90;;;;;;;-0.10;92.04;101088.98;109665;1281;22361;-49
2023/12/05 13:24:23;;;;;;;34.20;16.90;;;;;;;-0.13;92.20;101096.02;109685;1277;22673;-50
2023/12/05 13:26:51;;;;;;;29.80;17.10;;;;;;;-0.16;92.43;101091.55;109758;1278;22212;-44
2023/12/05 13:29:19;;;;;;;30.20;18.50;;;;;;;-0.18;92.42;101092.30;109527;1281;22500;-44
2023/12/05 13:31:45;;;;;;;35.10;18.90;;;;;;;-0.17;92.60;101091.66;109798;1281;22297;-41
2023/12/05 13:34:14;;;;;;;34.80;18.30;;;;;;;-0.17;92.54;101087.05;109828;1281;23210;-43
2023/12/05 13:36:41;;;;;;;45.60;22.40;;;;;;;-0.19;92.51;101086.41;109835;1281;22162;-42
2023/12/05 13:39:08;;;;;;;50.30;23.70;;;;;;;-0.20;92.44;101080.53;109622;1281;22694;-49
2023/12/05 13:41:40;;;;;;;36.30;21.80;;;;;;;-0.19;92.80;101075.26;109428;1281;23455;-45
2023/12/05 13:44:09;;;;;;;34.80;21.20;;;;;;;-0.18;92.63;101077.42;108771;1281;23017;-49
2023/12/05 13:46:36;;;;;;;39.30;21.70;;;;;;;-0.16;92.71;101081.79;109197;1271;22655;-46
2023/12/05 13:49:05;;;;;;;36.20;20.90;;;;;;;-0.18;92.72;101075.69;109869;1271;22432;-49
2023/12/05 13:51:35;;;;;;;32.90;19.20;;;;;;;-0.20;92.81;101075.08;109901;1281;22323;-49
2023/12/05 13:54:03;;;;;;;35.50;19.20;;;;;;;-0.20;92.70;101075.37;109859;1281;23038;-43
2023/12/05 13:56:30;;;;;;;34.10;17.90;;;;;;;-0.23;92.97;101071.48;109853;1278;22394;-43
2023/12/05 13:58:58;;;;;;;36.40;18.20;;;;;;;-0.25;92.92;101070.50;108957;1283;22247;-43
2023/12/05 14:01:25;;;;;;;33.50;18.30;;;;;;;-0.26;92.96;101071.13;109533;1282;22732;-46
2023/12/05 14:03:52;;;;;;;27.20;17.20;;;;;;;-0.29;93.11;101073.39;108646;1282;22387;-45
2023/12/05 14:06:19;;;;;;;31.60;18.50;;;;;;;-0.31;93.08;101077.70;109840;1281;22238;-43
2023/12/05 14:08:46;;;;;;;35.50;16.40;;;;;;;-0.35;92.99;101078.36;109309;1281;25284;-51
2023/12/05 14:11:14;;;;;;;35.60;16.50;;;;;;;-0.38;92.95;101083.79;108631;1267;22314;-49
2023/12/05 14:13:41;;;;;;;28.00;15.20;;;;;;;-0.43;92.64;101087.30;109733;1281;23200;-50
2023/12/05 14:16:08;;;;;;;30.10;16.30;;;;;;;-0.47;92.92;101087.95;109877;1281;22283;-43
2023/12/05 14:18:35;;;;;;;28.80;17.40;;;;;;;-0.47;92.87;101089.16;109800;1281;22433;-43
2023/12/05 14:21:02;;;;;;;28.10;16.10;;;;;;;-0.46;92.79;101091.10;108873;1271;22703;-42
2023/12/05 14:23:30;;;;;;;33.90;18.20;;;;;;;-0.45;93.03;101090.30;108240;1281;22357;-48
2023/12/05 14:25:56;;;;;;;38.20;19.30;;;;;;;-0.43;93.03;101093.13;109009;1281;22510;-49
2023/12/05 14:28:23;;;;;;;36.50;21.00;;;;;;;-0.40;93.18;101090.08;109890;1271;22343;-44
2023/12/05 14:30:50;;;;;;;51.00;23.10;;;;;;;-0.36;93.28;101090.98;109841;1281;22169;-43
2023/12/05 14:33:17;;;;;;;37.20;22.00;;;;;;;-0.32;92.93;101091.73;109499;1269;22607;-49
2023/12/05 14:35:44;;;;;;;42.60;23.40;;;;;;;-0.27;93.03;101091.45;108416;1282;22606;-44
2023/12/05 14:38:15;;;;;;;41.90;24.00;;;;;;;-0.23;92.61;101082.42;108701;1282;22584;-48
2023/12/05 14:40:43;;;;;;;39.40;22.00;;;;;;;-0.23;93.14;101073.72;107940;1282;22660;-51
2023/12/05 14:43:11;;;;;;;33.20;18.90;;;;;;;-0.23;92.86;101071.84;109135;1282;22443;-44
2023/12/05 14:45:38;;;;;;;33.90;18.80;;;;;;;-0.22;92.89;101069.63;109858;1282;23206;-48
2023/12/05 14:48:06;;;;;;;37.30;19.90;;;;;;;-0.22;92.55;101072.05;109918;1281;22288;-42
2023/12/05 14:50:33;;;;;;;32.40;17.00;;;;;;;-0.22;92.26;101075.98;109901;1281;22496;-47
2023/12/05 14:53:01;;;;;;;30.70;18.00;;;;;;;-0.24;92.29;101064.85;109850;1275;22346;-49
2023/12/05 14:55:28;;;;;;;33.40;19.30;;;;;;;-0.27;92.44;101059.23;109808;1281;22288;-48
2023/12/05 14:57:55;;;;;;;34.40;18.60;;;;;;;-0.28;92.48;101063.16;109875;1281;22299;-42
2023/12/05 15:00:22;;;;;;;38.40;20.50;;;;;;;-0.28;92.39;101064.52;109666;1277;22766;-50
2023/12/05 15:02:49;;;;;;;41.00;21.80;;;;;;;-0.28;92.24;101063.13;109147;1282;22348;-42
2023/12/05 15:05:16;;;;;;;36.00;18.70;;;;;;;-0.28;92.35;101065.39;109836;1282;22585;-50
2023/12/05 15:07:43;;;;;;;29.80;17.50;;;;;;;-0.27;92.30;101061.33;109885;1281;22324;-43
2023/12/05 15:10:10;;;;;;;28.10;15.10;;;;;;;-0.28;92.14;101051.67;109905;1281;22376;-50
2023/12/05 15:12:37;;;;;;;23.10;13.20;;;;;;;-0.31;91.92;101050.61;109918;1281;22402;-50
2023/12/05 15:15:05;;;;;;;20.20;11.80;;;;;;;-0.36;92.31;101047.63;109341;1281;22325;-44
2023/12/05 15:17:32;;;;;;;27.00;13.00;;;;;;;-0.39;92.38;101045.74;109898;1282;22916;-45
2023/12/05 15:19:59;;;;;;;24.90;13.50;;;;;;;-0.41;92.61;101041.32;109928;1281;22985;-44
2023/12/05 15:22:46;;;;;;;28.10;12.70;;;;;;;-0.43;92.64;101038.65;108610;1271;22322;-49
2023/12/05 15:25:13;;;;;;;22.40;13.30;;;;;;;-0.46;93.29;101040.38;109852;1271;22391;-47
2023/12/05 15:27:40;;;;;;;23.70;12.80;;;;;;;-0.47;93.33;101045.09;107829;1271;22457;-43
2023/12/05 15:30:08;;;;;;;24.80;13.50;;;;;;;-0.48;93.49;101042.95;109901;1281;22262;-43
2023/12/05 15:32:36;;;;;;;27.70;12.80;;;;;;;-0.50;93.67;101032.92;109714;1281;22978;-43
2023/12/05 15:35:04;;;;;;;19.50;12.10;;;;;;;-0.54;93.74;101031.34;108950;1281;22241;-48
2023/12/05 15:37:31;;;;;;;21.50;11.90;;;;;;;-0.58;93.59;101028.52;108450;1272;22639;-42
2023/12/05 15:39:57;;;;;;;23.30;12.80;;;;;;;-0.62;93.45;101028.33;107183;1274;22570;-50
2023/12/05 15:42:24;;;;;;;23.60;13.30;;;;;;;-0.66;93.71;101027.71;107238;1266;22530;-49
